EW5287 Weather Reports


time (UTC)temp
C
wind
direction
speed
KPH
gust
KPH
rain 1hr
cm
rain 24hr
cm
rain mn
cm
humidity
%
barometer
mb
20200216211511 7 204 0.0 19.3 0.03 0.69 0.69 87 1007.9
20200216210010 7 250 0.0 17.7 0.05 0.69 0.69 88 1008.1
20200216204504 7 160 0.0 27.4 0.05 0.69 0.69 89 1008.0
20200216203006 7 197 0.0 17.7 0.05 0.66 0.66 91 1007.5
20200216200212 7 238 0.0 3.2 0.05 0.64 0.64 92 1007.5
20200216194704 8 252 0.0 0.0 0.05 0.61 0.61 92 1007.2
20200216193236 8 231 0.0 0.0 0.05 0.61 0.61 92 1006.8
20200216191743 8 261 0.0 0.0 0.05 0.61 0.61 92 1006.9
20200216190127 8 236 0.0 3.2 0.08 0.58 0.58 91 1006.5
20200216184635 8 251 0.0 1.6 0.33 0.56 0.56 91 1006.0
20200216183208 8 239 1.6 16.1 0.33 0.53 0.53 91 1006.0
20200216181731 9 248 0.0 16.1 0.33 0.53 0.53 91 1005.1
20200216180210 10 331 0.0 17.7 0.28 0.51 0.51 89 1004.9
20200216174600 14 238 4.8 40.2 0.00 0.23 0.23 85 1001.4
20200216173103 15 196 3.2 29.0 0.00 0.23 0.23 80 1001.4
20200216171736 16 153 1.6 43.5 0.00 0.23 0.23 74 1000.7
20200216170146 16 211 3.2 30.6 0.00 0.23 0.23 73 1000.6
20200216164622 16 179 1.6 45.1 0.00 0.23 0.23 73 1000.6
20200216163056 16 233 1.6 29.0 0.00 0.23 0.23 73 1000.8
20200216161606 16 235 12.9 51.5 0.00 0.23 0.23 72 1000.9
20200216160058 16 254 1.6 33.8 0.00 0.23 0.23 72 1001.1
20200216154618 16 260 8.0 37.0 0.00 0.23 0.23 71 1001.2
20200216153057 16 195 1.6 30.6 0.00 0.23 0.23 72 1001.1
20200216151636 16 284 0.0 40.2 0.00 0.23 0.23 72 1001.4
20200216150047 16 222 0.0 33.8 0.00 0.23 0.23 73 1001.4
20200216144642 16 227 4.8 30.6 0.00 0.23 0.23 73 1001.4
20200216143042 15 201 0.0 40.2 0.00 0.23 0.23 74 1001.5
20200216141555 15 246 3.2 35.4 0.00 0.23 0.23 74 1001.8
20200216134636 15 186 3.2 46.7 0.00 0.23 0.23 75 1001.9
20200216133212 15 170 4.8 41.8 0.00 0.23 0.23 75 1002.1
20200216131557 15 227 3.2 30.6 0.00 0.23 0.23 76 1002.3
20200216130046 15 193 4.8 48.3 0.00 0.23 0.23 76 1002.6
20200216124611 14 200 0.0 30.6 0.00 0.23 0.23 76 1003.0
20200216123051 14 218 0.0 32.2 0.00 0.23 0.23 76 1003.3
20200216121553 14 230 1.6 33.8 0.00 0.23 0.23 75 1003.3
20200216120108 14 211 1.6 30.6 0.00 0.23 0.23 75 1003.7
20200216114531 15 247 0.0 33.8 0.00 0.23 0.23 74 1003.9
20200216113034 14 256 0.0 40.2 0.00 0.23 0.23 74 1003.8
20200216111544 15 235 1.6 25.7 0.00 0.23 0.23 74 1004.2
20200216110047 14 226 3.2 25.7 0.00 0.23 0.23 75 1004.8
20200216104538 13 198 0.0 35.4 0.00 0.23 0.23 75 1004.9
20200216103032 13 221 0.0 27.4 0.03 0.23 0.23 75 1005.0
20200216101516 13 109 1.6 20.9 0.03 0.23 0.23 75 1004.9
20200216100011 13 163 0.0 27.4 0.03 0.23 0.23 76 1005.0
20200216094510 13 188 4.8 51.5 0.03 0.23 0.23 76 1005.1
20200216093008 13 250 0.0 14.5 0.00 0.20 0.20 76 1005.3
20200216090003 12 234 0.0 12.9 0.00 0.20 0.20 77 1005.0
20200216084510 12 180 1.6 43.5 0.00 0.20 0.20 78 1004.9
20200216083143 12 184 0.0 27.4 0.00 0.20 0.20 80 1004.8
20200216081740 12 236 0.0 22.5 0.00 0.20 0.20 82 1005.3
20200216080207 12 219 0.0 24.1 0.00 0.20 0.20 81 1005.4
20200216074626 12 194 1.6 25.7 0.00 0.20 0.20 82 1005.2
20200216073107 12 207 1.6 32.2 0.00 0.20 0.20 84 1005.4
20200216071636 12 198 0.0 38.6 0.00 0.20 0.20 84 1005.7
20200216070238 12 229 0.0 38.6 0.00 0.20 0.20 84 1005.3
20200216064640 11 256 0.0 22.5 0.03 0.20 0.20 86 1005.4
20200216063216 11 232 4.8 25.7 0.03 0.20 0.20 87 1005.7
20200216061638 11 163 0.0 33.8 0.03 0.20 0.20 87 1005.9
20200216060124 11 180 1.6 24.1 0.03 0.20 0.20 89 1006.1
20200216054614 11 272 0.0 12.9 0.03 0.18 0.18 89 1006.5
20200216053117 11 196 1.6 29.0 0.05 0.18 0.18 89 1006.6
20200216051602 11 150 0.0 29.0 0.05 0.18 0.18 90 1007.0
20200216050051 11 195 3.2 29.0 0.05 0.18 0.18 90 1006.9
20200216044620 11 182 1.6 20.9 0.05 0.15 0.15 90 1007.3
20200216043115 11 184 3.2 40.2 0.05 0.15 0.15 90 1007.2
20200216041556 11 233 0.0 6.4 0.10 0.15 0.15 90 1007.5
20200216040058 11 167 1.6 22.5 0.10 0.13 0.13 90 1007.4
20200216034546 11 250 1.6 25.7 0.10 0.10 0.10 90 1007.9
20200216033038 11 237 3.2 33.8 0.08 0.08 0.08 90 1008.1
20200216031614 11 196 0.0 19.3 0.05 0.05 0.05 88 1008.3
20200216030032 11 204 0.0 14.5 0.03 0.03 0.03 85 1008.8
20200216024613 12 197 0.0 37.0 0.00 0.00 0.00 80 1008.8
20200216023100 12 142 0.0 24.1 0.00 0.00 0.00 76 1008.9
20200216021537 12 207 1.6 24.1 0.00 0.00 0.00 76 1009.2
20200216020017 12 267 1.6 25.7 0.00 0.00 0.00 76 1009.4
20200216014530 12 200 0.0 32.2 0.00 0.00 0.00 76 1009.7
20200216013022 12 176 0.0 29.0 0.00 0.00 0.00 75 1009.7
20200216011526 12 174 0.0 16.1 0.00 0.00 0.00 76 1009.9
20200216010024 12 177 3.2 30.6 0.00 0.00 0.00 76 1009.7
20200216004508 12 145 0.0 11.3 0.00 0.00 0.00 77 1010.0
20200216003011 12 173 0.0 33.8 0.00 0.00 0.00 76 1010.1
20200216001507 12 213 1.6 25.7 0.00 0.00 0.00 77 1010.2
20200216000003 12 188 0.0 4.8 0.00 0.00 0.00 77 1010.4
20200215234648 12 184 1.6 17.7 0.00 0.00 0.00 78 1010.6
20200215233142 12 198 0.0 27.4 0.00 0.00 0.00 78 1010.6
20200215231616 12 154 0.0 11.3 0.00 0.00 0.00 78 1010.5
20200215230133 11 257 0.0 14.5 0.00 0.00 0.00 79 1010.5
20200215224752 11 262 0.0 19.3 0.00 0.00 0.00 79 1010.8
20200215223212 11 259 0.0 19.3 0.00 0.00 0.00 80 1011.2
20200215221747 11 211 0.0 3.2 0.00 0.00 0.00 81 1010.8
20200215220148 11 183 3.2 33.8 0.00 0.00 0.00 80 1010.9
20200215214637 11 190 3.2 37.0 0.00 0.00 0.00 78 1011.5
20200215213143 11 195 0.0 45.1 0.00 0.00 0.00 78 1011.4